sensor_id;sensor_type;location;lat;lon;timestamp;pressure;altitude;pressure_sealevel;temperature;humidity
24486;BME280;13449;49.374;8.584;2022-09-03T00:02:18;100053.41;;;20.13;43.78
24486;BME280;13449;49.374;8.584;2022-09-03T00:05:16;100050.09;;;20.16;42.71
24486;BME280;13449;49.374;8.584;2022-09-03T00:07:56;100056.50;;;20.16;42.95
24486;BME280;13449;49.374;8.584;2022-09-03T00:13:14;100049.78;;;20.12;43.41
24486;BME280;13449;49.374;8.584;2022-09-03T00:15:42;100048.94;;;20.12;43.17
24486;BME280;13449;49.374;8.584;2022-09-03T00:18:17;100040.97;;;20.15;42.94
24486;BME280;13449;49.374;8.584;2022-09-03T00:20:53;100045.13;;;20.18;42.69
24486;BME280;13449;49.374;8.584;2022-09-03T00:23:26;100045.91;;;20.13;43.13
24486;BME280;13449;49.374;8.584;2022-09-03T00:26:16;100056.72;;;20.15;43.04
24486;BME280;13449;49.374;8.584;2022-09-03T00:28:48;100043.66;;;20.10;43.43
24486;BME280;13449;49.374;8.584;2022-09-03T00:31:21;100040.97;;;20.15;43.13
24486;BME280;13449;49.374;8.584;2022-09-03T00:33:59;100034.34;;;20.16;43.05
24486;BME280;13449;49.374;8.584;2022-09-03T00:36:45;100028.78;;;20.16;43.50
24486;BME280;13449;49.374;8.584;2022-09-03T00:39:17;100034.91;;;20.18;43.61
24486;BME280;13449;49.374;8.584;2022-09-03T00:50:20;100020.34;;;20.06;44.88
24486;BME280;13449;49.374;8.584;2022-09-03T00:53:16;100030.88;;;20.04;44.87
24486;BME280;13449;49.374;8.584;2022-09-03T00:58:36;100004.09;;;19.88;46.70
24486;BME280;13449;49.374;8.584;2022-09-03T01:01:19;99997.59;;;19.77;47.43
24486;BME280;13449;49.374;8.584;2022-09-03T01:07:05;100007.00;;;19.55;49.40
24486;BME280;13449;49.374;8.584;2022-09-03T01:12:28;100023.06;;;19.58;48.27
24486;BME280;13449;49.374;8.584;2022-09-03T01:15:13;100007.72;;;19.45;50.52
24486;BME280;13449;49.374;8.584;2022-09-03T01:18:03;100031.81;;;19.50;48.31
24486;BME280;13449;49.374;8.584;2022-09-03T01:20:39;100026.75;;;19.42;48.35
24486;BME280;13449;49.374;8.584;2022-09-03T01:29:16;100048.06;;;19.46;47.24
24486;BME280;13449;49.374;8.584;2022-09-03T01:32:00;100066.16;;;19.54;46.57
24486;BME280;13449;49.374;8.584;2022-09-03T01:34:42;100070.47;;;19.45;47.57
24486;BME280;13449;49.374;8.584;2022-09-03T01:50:52;100091.56;;;19.51;45.82
24486;BME280;13449;49.374;8.584;2022-09-03T01:59:06;100093.34;;;19.57;45.12
24486;BME280;13449;49.374;8.584;2022-09-03T02:01:42;100089.41;;;19.53;45.34
24486;BME280;13449;49.374;8.584;2022-09-03T02:04:23;100090.50;;;19.52;45.96
24486;BME280;13449;49.374;8.584;2022-09-03T02:06:51;100098.78;;;19.52;45.57
24486;BME280;13449;49.374;8.584;2022-09-03T02:09:19;100097.84;;;19.46;45.66
24486;BME280;13449;49.374;8.584;2022-09-03T02:14:41;100093.13;;;19.42;46.08
24486;BME280;13449;49.374;8.584;2022-09-03T02:17:09;100096.84;;;19.36;46.71
24486;BME280;13449;49.374;8.584;2022-09-03T02:19:37;100086.53;;;19.31;46.86
24486;BME280;13449;49.374;8.584;2022-09-03T02:22:04;100096.09;;;19.40;46.08
24486;BME280;13449;49.374;8.584;2022-09-03T02:24:31;100110.50;;;19.42;45.91
24486;BME280;13449;49.374;8.584;2022-09-03T02:26:57;100111.34;;;19.43;45.54
24486;BME280;13449;49.374;8.584;2022-09-03T02:29:24;100109.06;;;19.40;46.15
24486;BME280;13449;49.374;8.584;2022-09-03T02:31:52;100088.72;;;19.29;47.64
24486;BME280;13449;49.374;8.584;2022-09-03T02:34:19;100096.88;;;19.19;47.56
24486;BME280;13449;49.374;8.584;2022-09-03T02:36:46;100065.94;;;19.05;49.17
24486;BME280;13449;49.374;8.584;2022-09-03T02:39:16;100074.50;;;19.04;47.69
24486;BME280;13449;49.374;8.584;2022-09-03T02:41:43;100073.50;;;18.93;48.77
24486;BME280;13449;49.374;8.584;2022-09-03T02:44:15;100063.44;;;18.87;48.66
24486;BME280;13449;49.374;8.584;2022-09-03T02:47:06;100069.13;;;18.97;47.78
24486;BME280;13449;49.374;8.584;2022-09-03T02:49:35;100074.50;;;19.04;48.19
24486;BME280;13449;49.374;8.584;2022-09-03T02:52:06;100068.03;;;18.81;49.06
24486;BME280;13449;49.374;8.584;2022-09-03T02:54:38;100072.31;;;18.89;48.14
24486;BME280;13449;49.374;8.584;2022-09-03T02:57:07;100074.81;;;18.91;48.24
24486;BME280;13449;49.374;8.584;2022-09-03T02:59:34;100079.78;;;18.89;49.09
24486;BME280;13449;49.374;8.584;2022-09-03T03:02:03;100101.19;;;18.98;47.82
24486;BME280;13449;49.374;8.584;2022-09-03T03:04:31;100096.75;;;18.97;48.07
24486;BME280;13449;49.374;8.584;2022-09-03T03:06:58;100070.53;;;18.83;49.28
24486;BME280;13449;49.374;8.584;2022-09-03T03:09:25;100071.72;;;18.87;48.33
24486;BME280;13449;49.374;8.584;2022-09-03T03:11:51;100054.88;;;18.72;49.38
24486;BME280;13449;49.374;8.584;2022-09-03T03:14:20;100070.88;;;18.87;47.81
24486;BME280;13449;49.374;8.584;2022-09-03T03:16:48;100069.78;;;18.88;48.27
24486;BME280;13449;49.374;8.584;2022-09-03T03:19:14;100073.63;;;18.87;48.08
24486;BME280;13449;49.374;8.584;2022-09-03T03:21:41;100068.84;;;18.82;48.76
24486;BME280;13449;49.374;8.584;2022-09-03T03:24:08;100081.19;;;18.91;47.71
24486;BME280;13449;49.374;8.584;2022-09-03T03:26:37;100069.13;;;18.80;48.35
24486;BME280;13449;49.374;8.584;2022-09-03T03:29:03;100081.78;;;18.93;47.74
24486;BME280;13449;49.374;8.584;2022-09-03T03:31:31;100069.63;;;18.94;47.84
24486;BME280;13449;49.374;8.584;2022-09-03T03:34:02;100077.41;;;18.97;47.57
24486;BME280;13449;49.374;8.584;2022-09-03T03:36:31;100088.72;;;18.96;47.61
24486;BME280;13449;49.374;8.584;2022-09-03T03:38:59;100081.53;;;18.95;47.67
24486;BME280;13449;49.374;8.584;2022-09-03T03:41:27;100066.81;;;18.89;49.00
24486;BME280;13449;49.374;8.584;2022-09-03T03:43:59;100082.88;;;18.92;47.89
24486;BME280;13449;49.374;8.584;2022-09-03T03:46:35;100080.63;;;18.89;48.18
24486;BME280;13449;49.374;8.584;2022-09-03T03:49:03;100063.00;;;18.78;49.22
24486;BME280;13449;49.374;8.584;2022-09-03T03:51:32;100075.00;;;18.84;48.67
24486;BME280;13449;49.374;8.584;2022-09-03T03:53:59;100088.28;;;18.87;48.07
24486;BME280;13449;49.374;8.584;2022-09-03T03:56:30;100075.00;;;18.84;49.32
24486;BME280;13449;49.374;8.584;2022-09-03T03:58:58;100077.16;;;18.82;49.06
24486;BME280;13449;49.374;8.584;2022-09-03T04:01:26;100080.75;;;18.82;48.80
24486;BME280;13449;49.374;8.584;2022-09-03T04:03:57;100080.75;;;18.82;49.12
24486;BME280;13449;49.374;8.584;2022-09-03T04:06:24;100090.22;;;18.87;48.38
24486;BME280;13449;49.374;8.584;2022-09-03T04:08:54;100095.75;;;18.87;48.35
24486;BME280;13449;49.374;8.584;2022-09-03T04:11:22;100092.41;;;18.85;48.55
24486;BME280;13449;49.374;8.584;2022-09-03T04:13:51;100097.66;;;18.86;48.62
24486;BME280;13449;49.374;8.584;2022-09-03T04:16:22;100096.00;;;18.85;48.39
24486;BME280;13449;49.374;8.584;2022-09-03T04:18:51;100101.28;;;18.87;48.37
24486;BME280;13449;49.374;8.584;2022-09-03T04:21:20;100097.09;;;18.84;48.70
24486;BME280;13449;49.374;8.584;2022-09-03T04:23:48;100089.81;;;18.78;49.01
24486;BME280;13449;49.374;8.584;2022-09-03T04:26:18;100087.28;;;18.76;49.74
24486;BME280;13449;49.374;8.584;2022-09-03T04:28:47;100091.72;;;18.77;48.89
24486;BME280;13449;49.374;8.584;2022-09-03T04:31:18;100076.41;;;18.70;50.36
24486;BME280;13449;49.374;8.584;2022-09-03T04:33:45;100082.50;;;18.72;49.39
24486;BME280;13449;49.374;8.584;2022-09-03T04:38:41;100093.81;;;18.70;49.53
24486;BME280;13449;49.374;8.584;2022-09-03T04:41:10;100085.94;;;18.62;50.04
24486;BME280;13449;49.374;8.584;2022-09-03T04:43:37;100089.53;;;18.63;50.17
24486;BME280;13449;49.374;8.584;2022-09-03T04:46:05;100078.16;;;18.59;51.04
24486;BME280;13449;49.374;8.584;2022-09-03T04:48:47;100065.22;;;18.48;53.42
24486;BME280;13449;49.374;8.584;2022-09-03T04:51:15;100071.31;;;18.50;52.45
24486;BME280;13449;49.374;8.584;2022-09-03T04:53:44;100061.00;;;18.46;53.28
24486;BME280;13449;49.374;8.584;2022-09-03T04:56:23;100069.53;;;18.44;53.17
24486;BME280;13449;49.374;8.584;2022-09-03T04:58:55;100059.81;;;18.42;53.54
24486;BME280;13449;49.374;8.584;2022-09-03T05:01:24;100069.59;;;18.32;54.04
24486;BME280;13449;49.374;8.584;2022-09-03T05:03:52;100061.22;;;18.27;54.54
24486;BME280;13449;49.374;8.584;2022-09-03T05:06:20;100064.47;;;18.24;54.93
24486;BME280;13449;49.374;8.584;2022-09-03T05:08:50;100059.34;;;18.16;55.84
24486;BME280;13449;49.374;8.584;2022-09-03T05:11:21;100067.50;;;18.11;56.22
24486;BME280;13449;49.374;8.584;2022-09-03T05:13:55;100083.25;;;18.11;56.20
24486;BME280;13449;49.374;8.584;2022-09-03T05:16:22;100086.13;;;18.04;56.96
24486;BME280;13449;49.374;8.584;2022-09-03T05:18:53;100086.50;;;17.96;57.58
24486;BME280;13449;49.374;8.584;2022-09-03T05:21:21;100093.22;;;18.00;57.52
24486;BME280;13449;49.374;8.584;2022-09-03T05:23:48;100094.06;;;17.89;58.21
24486;BME280;13449;49.374;8.584;2022-09-03T05:26:19;100096.25;;;17.87;58.41
24486;BME280;13449;49.374;8.584;2022-09-03T05:28:46;100113.28;;;17.96;57.56
24486;BME280;13449;49.374;8.584;2022-09-03T05:31:18;100117.84;;;17.90;58.44
24486;BME280;13449;49.374;8.584;2022-09-03T05:33:50;100136.78;;;17.98;57.40
24486;BME280;13449;49.374;8.584;2022-09-03T05:36:23;100131.41;;;17.92;57.72
24486;BME280;13449;49.374;8.584;2022-09-03T05:38:52;100113.16;;;17.91;58.57
24486;BME280;13449;49.374;8.584;2022-09-03T05:41:19;100133.66;;;17.95;57.88
24486;BME280;13449;49.374;8.584;2022-09-03T05:43:48;100155.09;;;18.04;57.70
24486;BME280;13449;49.374;8.584;2022-09-03T05:46:26;100149.72;;;18.09;57.64
24486;BME280;13449;49.374;8.584;2022-09-03T05:49:00;100153.34;;;17.98;57.74
24486;BME280;13449;49.374;8.584;2022-09-03T05:51:28;100155.03;;;17.99;58.19
24486;BME280;13449;49.374;8.584;2022-09-03T05:53:55;100149.00;;;18.02;58.63
24486;BME280;13449;49.374;8.584;2022-09-03T05:56:24;100156.66;;;18.00;57.96
24486;BME280;13449;49.374;8.584;2022-09-03T05:58:52;100155.81;;;18.00;58.57
24486;BME280;13449;49.374;8.584;2022-09-03T06:01:27;100151.16;;;18.00;58.74
24486;BME280;13449;49.374;8.584;2022-09-03T06:03:57;100157.28;;;18.02;59.22
24486;BME280;13449;49.374;8.584;2022-09-03T06:06:28;100157.28;;;18.02;59.26
24486;BME280;13449;49.374;8.584;2022-09-03T06:08:59;100164.50;;;18.03;58.65
24486;BME280;13449;49.374;8.584;2022-09-03T06:11:29;100165.56;;;18.02;59.50
24486;BME280;13449;49.374;8.584;2022-09-03T06:14:00;100154.88;;;18.06;60.18
24486;BME280;13449;49.374;8.584;2022-09-03T06:16:27;100140.13;;;18.00;62.37
24486;BME280;13449;49.374;8.584;2022-09-03T06:18:58;100151.16;;;17.88;68.30
24486;BME280;13449;49.374;8.584;2022-09-03T06:21:27;100168.34;;;17.79;66.28
24486;BME280;13449;49.374;8.584;2022-09-03T06:23:57;100164.50;;;17.68;70.89
24486;BME280;13449;49.374;8.584;2022-09-03T06:26:26;100172.88;;;17.50;73.15
24486;BME280;13449;49.374;8.584;2022-09-03T06:28:58;100176.06;;;17.24;78.86
24486;BME280;13449;49.374;8.584;2022-09-03T06:31:27;100188.84;;;17.07;83.19
24486;BME280;13449;49.374;8.584;2022-09-03T06:33:54;100180.28;;;16.85;83.57
24486;BME280;13449;49.374;8.584;2022-09-03T06:36:29;100179.16;;;16.74;85.16
24486;BME280;13449;49.374;8.584;2022-09-03T06:38:56;100184.47;;;16.58;84.17
24486;BME280;13449;49.374;8.584;2022-09-03T06:41:26;100183.84;;;16.56;89.06
24486;BME280;13449;49.374;8.584;2022-09-03T06:43:56;100182.47;;;16.47;90.59
24486;BME280;13449;49.374;8.584;2022-09-03T06:46:28;100170.97;;;16.56;87.97
24486;BME280;13449;49.374;8.584;2022-09-03T06:48:56;100178.75;;;16.59;83.15
24486;BME280;13449;49.374;8.584;2022-09-03T06:51:24;100173.88;;;16.25;91.18
24486;BME280;13449;49.374;8.584;2022-09-03T06:53:53;100185.72;;;16.25;93.36
24486;BME280;13449;49.374;8.584;2022-09-03T06:56:22;100176.25;;;16.21;92.87
24486;BME280;13449;49.374;8.584;2022-09-03T06:58:56;100178.22;;;16.14;95.40
24486;BME280;13449;49.374;8.584;2022-09-03T07:01:26;100180.97;;;15.96;95.94
24486;BME280;13449;49.374;8.584;2022-09-03T07:03:55;100194.94;;;15.94;100.00
24486;BME280;13449;49.374;8.584;2022-09-03T07:06:23;100211.59;;;15.81;100.00
24486;BME280;13449;49.374;8.584;2022-09-03T07:08:50;100198.22;;;15.67;100.00
24486;BME280;13449;49.374;8.584;2022-09-03T07:11:19;100183.72;;;15.78;100.00
24486;BME280;13449;49.374;8.584;2022-09-03T07:13:50;100183.56;;;15.91;100.00
24486;BME280;13449;49.374;8.584;2022-09-03T07:16:19;100189.34;;;15.83;100.00
24486;BME280;13449;49.374;8.584;2022-09-03T07:18:47;100197.75;;;15.70;100.00
24486;BME280;13449;49.374;8.584;2022-09-03T07:21:23;100197.19;;;15.61;100.00
24486;BME280;13449;49.374;8.584;2022-09-03T07:23:51;100200.00;;;15.55;100.00
24486;BME280;13449;49.374;8.584;2022-09-03T07:26:27;100215.88;;;15.53;100.00
24486;BME280;13449;49.374;8.584;2022-09-03T07:28:56;100237.25;;;15.51;100.00
24486;BME280;13449;49.374;8.584;2022-09-03T07:31:28;100226.88;;;15.53;100.00
24486;BME280;13449;49.374;8.584;2022-09-03T07:33:55;100235.09;;;15.53;100.00
24486;BME280;13449;49.374;8.584;2022-09-03T07:36:23;100229.22;;;15.49;100.00
24486;BME280;13449;49.374;8.584;2022-09-03T07:38:54;100233.78;;;15.62;100.00
24486;BME280;13449;49.374;8.584;2022-09-03T07:41:25;100227.88;;;15.58;100.00
24486;BME280;13449;49.374;8.584;2022-09-03T07:43:54;100229.78;;;15.58;100.00
24486;BME280;13449;49.374;8.584;2022-09-03T07:46:24;100235.06;;;15.59;100.00
24486;BME280;13449;49.374;8.584;2022-09-03T07:48:56;100223.16;;;15.65;100.00
24486;BME280;13449;49.374;8.584;2022-09-03T07:51:27;100215.06;;;15.52;100.00
24486;BME280;13449;49.374;8.584;2022-09-03T07:53:59;100218.97;;;15.63;100.00
24486;BME280;13449;49.374;8.584;2022-09-03T07:56:27;100224.13;;;15.53;100.00
24486;BME280;13449;49.374;8.584;2022-09-03T07:58:58;100223.69;;;15.56;100.00
24486;BME280;13449;49.374;8.584;2022-09-03T08:01:27;100218.97;;;15.63;100.00
24486;BME280;13449;49.374;8.584;2022-09-03T08:03:54;100224.22;;;15.64;100.00
24486;BME280;13449;49.374;8.584;2022-09-03T08:06:23;100223.63;;;15.62;100.00
24486;BME280;13449;49.374;8.584;2022-09-03T08:08:57;100217.66;;;15.65;100.00
24486;BME280;13449;49.374;8.584;2022-09-03T08:11:31;100212.34;;;15.70;100.00
24486;BME280;13449;49.374;8.584;2022-09-03T08:14:02;100219.06;;;15.74;100.00
24486;BME280;13449;49.374;8.584;2022-09-03T08:16:35;100208.00;;;15.81;100.00
24486;BME280;13449;49.374;8.584;2022-09-03T08:19:02;100210.84;;;15.74;100.00
24486;BME280;13449;49.374;8.584;2022-09-03T08:21:32;100211.16;;;15.84;100.00
24486;BME280;13449;49.374;8.584;2022-09-03T08:23:58;100204.13;;;16.07;100.00
24486;BME280;13449;49.374;8.584;2022-09-03T08:26:36;100208.50;;;16.14;100.00
24486;BME280;13449;49.374;8.584;2022-09-03T08:29:03;100200.25;;;16.14;100.00
24486;BME280;13449;49.374;8.584;2022-09-03T08:31:33;100193.44;;;16.17;100.00
24486;BME280;13449;49.374;8.584;2022-09-03T08:34:04;100172.50;;;16.16;100.00
24486;BME280;13449;49.374;8.584;2022-09-03T08:36:36;100205.28;;;16.17;100.00
24486;BME280;13449;49.374;8.584;2022-09-03T08:39:07;100230.88;;;16.00;100.00
24486;BME280;13449;49.374;8.584;2022-09-03T08:44:30;100212.59;;;16.05;100.00
24486;BME280;13449;49.374;8.584;2022-09-03T08:49:51;100232.47;;;16.07;100.00
24486;BME280;13449;49.374;8.584;2022-09-03T08:57:46;100255.13;;;15.84;100.00
24486;BME280;13449;49.374;8.584;2022-09-03T09:00:14;100255.97;;;15.85;100.00
24486;BME280;13449;49.374;8.584;2022-09-03T09:08:02;100276.41;;;15.71;100.00
24486;BME280;13449;49.374;8.584;2022-09-03T09:10:42;100265.75;;;15.81;100.00
24486;BME280;13449;49.374;8.584;2022-09-03T09:21:46;100276.34;;;16.38;100.00
24486;BME280;13449;49.374;8.584;2022-09-03T09:24:22;100273.41;;;16.58;100.00
24486;BME280;13449;49.374;8.584;2022-09-03T09:26:59;100271.94;;;16.74;100.00
24486;BME280;13449;49.374;8.584;2022-09-03T09:29:32;100274.69;;;16.74;100.00
24486;BME280;13449;49.374;8.584;2022-09-03T09:32:00;100272.44;;;17.01;100.00
24486;BME280;13449;49.374;8.584;2022-09-03T09:34:27;100275.72;;;16.91;100.00
24486;BME280;13449;49.374;8.584;2022-09-03T09:36:55;100274.72;;;17.04;100.00
24486;BME280;13449;49.374;8.584;2022-09-03T09:39:22;100289.06;;;16.76;100.00
24486;BME280;13449;49.374;8.584;2022-09-03T09:42:09;100290.34;;;16.91;100.00
24486;BME280;13449;49.374;8.584;2022-09-03T09:44:41;100278.31;;;17.04;100.00
24486;BME280;13449;49.374;8.584;2022-09-03T09:49:55;100284.09;;;17.14;100.00
24486;BME280;13449;49.374;8.584;2022-09-03T09:52:24;100283.03;;;17.15;100.00
24486;BME280;13449;49.374;8.584;2022-09-03T09:55:04;100282.06;;;17.39;100.00
24486;BME280;13449;49.374;8.584;2022-09-03T09:57:33;100283.78;;;17.22;100.00
24486;BME280;13449;49.374;8.584;2022-09-03T10:00:14;100274.00;;;17.38;100.00
24486;BME280;13449;49.374;8.584;2022-09-03T10:02:52;100286.44;;;17.29;95.70
24486;BME280;13449;49.374;8.584;2022-09-03T10:05:26;100271.94;;;17.33;100.00
24486;BME280;13449;49.374;8.584;2022-09-03T10:07:57;100274.16;;;17.55;100.00
24486;BME280;13449;49.374;8.584;2022-09-03T10:10:25;100270.53;;;17.43;100.00
24486;BME280;13449;49.374;8.584;2022-09-03T10:12:59;100268.31;;;17.63;100.00
24486;BME280;13449;49.374;8.584;2022-09-03T10:15:39;100268.22;;;17.58;100.00
24486;BME280;13449;49.374;8.584;2022-09-03T10:21:23;100265.38;;;17.76;100.00
24486;BME280;13449;49.374;8.584;2022-09-03T10:26:51;100245.81;;;18.01;100.00
24486;BME280;13449;49.374;8.584;2022-09-03T10:29:20;100247.28;;;18.03;97.77
24486;BME280;13449;49.374;8.584;2022-09-03T10:34:37;100242.34;;;18.05;98.68
24486;BME280;13449;49.374;8.584;2022-09-03T10:42:47;100237.00;;;18.39;99.19
24486;BME280;13449;49.374;8.584;2022-09-03T10:45:20;100233.19;;;18.40;96.12
24486;BME280;13449;49.374;8.584;2022-09-03T10:48:15;100236.78;;;18.52;92.92
24486;BME280;13449;49.374;8.584;2022-09-03T10:51:04;100239.06;;;18.83;95.81
24486;BME280;13449;49.374;8.584;2022-09-03T10:56:21;100263.25;;;18.76;89.95
24486;BME280;13449;49.374;8.584;2022-09-03T11:04:52;100257.69;;;19.61;97.86
24486;BME280;13449;49.374;8.584;2022-09-03T11:07:26;100254.38;;;19.75;97.52
24486;BME280;13449;49.374;8.584;2022-09-03T11:12:38;100251.06;;;19.95;92.48
24486;BME280;13449;49.374;8.584;2022-09-03T11:15:17;100250.97;;;20.07;96.00
24486;BME280;13449;49.374;8.584;2022-09-03T11:17:54;100258.00;;;20.14;94.18
24486;BME280;13449;49.374;8.584;2022-09-03T11:20:24;100249.28;;;20.39;92.15
24486;BME280;13449;49.374;8.584;2022-09-03T11:23:00;100242.69;;;20.45;91.59
24486;BME280;13449;49.374;8.584;2022-09-03T11:25:34;100246.38;;;20.72;90.73
24486;BME280;13449;49.374;8.584;2022-09-03T11:28:23;100238.25;;;20.66;88.36
24486;BME280;13449;49.374;8.584;2022-09-03T11:31:04;100238.03;;;20.29;83.89
24486;BME280;13449;49.374;8.584;2022-09-03T11:33:55;100228.59;;;20.68;90.90
24486;BME280;13449;49.374;8.584;2022-09-03T11:36:35;100222.81;;;20.97;90.01
24486;BME280;13449;49.374;8.584;2022-09-03T11:39:18;100220.09;;;21.02;89.88
24486;BME280;13449;49.374;8.584;2022-09-03T11:42:03;100223.44;;;21.04;86.69
24486;BME280;13449;49.374;8.584;2022-09-03T11:44:35;100218.81;;;21.09;88.57
24486;BME280;13449;49.374;8.584;2022-09-03T11:47:36;100222.41;;;21.10;88.13
24486;BME280;13449;49.374;8.584;2022-09-03T11:50:07;100218.88;;;20.93;85.53
24486;BME280;13449;49.374;8.584;2022-09-03T11:52:44;100212.34;;;21.04;88.99
24486;BME280;13449;49.374;8.584;2022-09-03T11:55:11;100206.59;;;20.84;86.38
24486;BME280;13449;49.374;8.584;2022-09-03T11:57:41;100230.00;;;20.71;81.83
24486;BME280;13449;49.374;8.584;2022-09-03T12:00:13;100222.28;;;21.00;83.93
24486;BME280;13449;49.374;8.584;2022-09-03T12:02:44;100208.25;;;21.06;86.13
24486;BME280;13449;49.374;8.584;2022-09-03T12:05:27;100215.84;;;21.16;83.06
24486;BME280;13449;49.374;8.584;2022-09-03T12:10:57;100218.47;;;21.28;77.61
24486;BME280;13449;49.374;8.584;2022-09-03T12:13:50;100204.03;;;21.26;81.10
24486;BME280;13449;49.374;8.584;2022-09-03T12:19:42;100202.09;;;21.04;79.36
24486;BME280;13449;49.374;8.584;2022-09-03T12:22:16;100194.50;;;21.16;80.88
24486;BME280;13449;49.374;8.584;2022-09-03T12:24:43;100193.63;;;21.43;80.55
24486;BME280;13449;49.374;8.584;2022-09-03T12:27:24;100192.44;;;21.65;82.81
24486;BME280;13449;49.374;8.584;2022-09-03T12:29:54;100197.63;;;21.57;81.55
24486;BME280;13449;49.374;8.584;2022-09-03T12:32:30;100208.66;;;21.47;80.00
24486;BME280;13449;49.374;8.584;2022-09-03T12:35:10;100206.78;;;21.57;80.63
24486;BME280;13449;49.374;8.584;2022-09-03T12:37:37;100199.34;;;21.95;80.02
24486;BME280;13449;49.374;8.584;2022-09-03T12:40:26;100189.97;;;22.06;81.20
24486;BME280;13449;49.374;8.584;2022-09-03T12:43:10;100214.09;;;22.00;74.58
24486;BME280;13449;49.374;8.584;2022-09-03T12:45:57;100203.88;;;21.74;78.07
24486;BME280;13449;49.374;8.584;2022-09-03T12:54:33;100218.06;;;22.14;74.66
24486;BME280;13449;49.374;8.584;2022-09-03T12:57:02;100206.13;;;22.14;77.53
24486;BME280;13449;49.374;8.584;2022-09-03T12:59:32;100207.47;;;22.06;75.55
24486;BME280;13449;49.374;8.584;2022-09-03T13:02:10;100200.31;;;22.21;77.39
24486;BME280;13449;49.374;8.584;2022-09-03T13:04:41;100219.72;;;22.10;75.58
24486;BME280;13449;49.374;8.584;2022-09-03T13:09:45;100207.50;;;22.11;80.18
24486;BME280;13449;49.374;8.584;2022-09-03T13:12:30;100215.56;;;22.13;80.53
24486;BME280;13449;49.374;8.584;2022-09-03T13:15:05;100215.31;;;22.20;80.51
24486;BME280;13449;49.374;8.584;2022-09-03T13:17:47;100223.38;;;22.21;79.89
24486;BME280;13449;49.374;8.584;2022-09-03T13:20:28;100227.50;;;22.13;75.41
24486;BME280;13449;49.374;8.584;2022-09-03T13:23:28;100221.19;;;22.23;78.80
24486;BME280;13449;49.374;8.584;2022-09-03T13:26:13;100219.34;;;22.44;77.38
24486;BME280;13449;49.374;8.584;2022-09-03T13:34:12;100224.63;;;22.45;75.24
24486;BME280;13449;49.374;8.584;2022-09-03T13:39:58;100221.94;;;22.60;77.06
24486;BME280;13449;49.374;8.584;2022-09-03T13:48:10;100190.72;;;23.31;77.72
24486;BME280;13449;49.374;8.584;2022-09-03T13:51:13;100200.19;;;23.35;75.74
24486;BME280;13449;49.374;8.584;2022-09-03T13:53:50;100206.28;;;23.22;74.37
24486;BME280;13449;49.374;8.584;2022-09-03T13:59:15;100201.28;;;23.29;74.68
24486;BME280;13449;49.374;8.584;2022-09-03T14:01:54;100204.38;;;23.47;73.28
24486;BME280;13449;49.374;8.584;2022-09-03T14:04:32;100199.66;;;23.53;72.58
24486;BME280;13449;49.374;8.584;2022-09-03T14:07:10;100197.16;;;23.46;72.68
24486;BME280;13449;49.374;8.584;2022-09-03T14:10:09;100207.94;;;23.23;70.58
24486;BME280;13449;49.374;8.584;2022-09-03T14:15:51;100201.88;;;23.56;68.22
24486;BME280;13449;49.374;8.584;2022-09-03T14:18:53;100177.09;;;23.70;72.47
24486;BME280;13449;49.374;8.584;2022-09-03T14:21:29;100183.78;;;23.69;73.36
24486;BME280;13449;49.374;8.584;2022-09-03T14:24:25;100182.94;;;23.68;73.69
24486;BME280;13449;49.374;8.584;2022-09-03T14:26:56;100215.81;;;23.71;68.30
24486;BME280;13449;49.374;8.584;2022-09-03T14:29:29;100206.06;;;23.79;71.23
24486;BME280;13449;49.374;8.584;2022-09-03T14:32:05;100206.63;;;23.61;70.71
24486;BME280;13449;49.374;8.584;2022-09-03T14:35:32;100226.38;;;23.74;67.66
24486;BME280;13449;49.374;8.584;2022-09-03T14:46:23;100200.75;;;23.32;72.66
24486;BME280;13449;49.374;8.584;2022-09-03T14:49:14;100203.50;;;23.17;72.64
24486;BME280;13449;49.374;8.584;2022-09-03T14:55:01;100205.91;;;22.78;74.73
24486;BME280;13449;49.374;8.584;2022-09-03T15:03:33;100205.94;;;22.31;78.04
24486;BME280;13449;49.374;8.584;2022-09-03T15:08:56;100197.00;;;22.19;80.07
24486;BME280;13449;49.374;8.584;2022-09-03T15:11:45;100206.13;;;22.14;78.60
24486;BME280;13449;49.374;8.584;2022-09-03T15:14:41;100209.69;;;22.09;81.64
24486;BME280;13449;49.374;8.584;2022-09-03T15:21:01;100219.97;;;22.09;80.95
24486;BME280;13449;49.374;8.584;2022-09-03T15:26:20;100220.50;;;22.06;82.08
24486;BME280;13449;49.374;8.584;2022-09-03T15:28:54;100223.53;;;21.99;80.13
24486;BME280;13449;49.374;8.584;2022-09-03T15:34:17;100211.19;;;21.90;81.04
24486;BME280;13449;49.374;8.584;2022-09-03T15:36:54;100216.25;;;21.93;79.11
24486;BME280;13449;49.374;8.584;2022-09-03T15:39:26;100221.16;;;21.86;81.47
24486;BME280;13449;49.374;8.584;2022-09-03T15:41:58;100207.81;;;21.78;82.13
24486;BME280;13449;49.374;8.584;2022-09-03T15:44:34;100217.13;;;21.67;83.57
24486;BME280;13449;49.374;8.584;2022-09-03T15:47:06;100212.56;;;21.51;84.04
24486;BME280;13449;49.374;8.584;2022-09-03T15:49:58;100214.75;;;21.49;87.52
24486;BME280;13449;49.374;8.584;2022-09-03T15:55:10;100213.38;;;21.19;90.38
24486;BME280;13449;49.374;8.584;2022-09-03T15:57:46;100220.00;;;20.92;93.26
24486;BME280;13449;49.374;8.584;2022-09-03T16:00:24;100211.50;;;20.77;99.77
24486;BME280;13449;49.374;8.584;2022-09-03T16:03:07;100215.13;;;20.55;100.00
24486;BME280;13449;49.374;8.584;2022-09-03T16:05:42;100217.03;;;20.55;100.00
24486;BME280;13449;49.374;8.584;2022-09-03T16:08:41;100220.22;;;20.42;100.00
24486;BME280;13449;49.374;8.584;2022-09-03T16:14:11;100225.50;;;20.26;100.00
24486;BME280;13449;49.374;8.584;2022-09-03T16:17:04;100217.63;;;20.18;100.00